createdAt,value
2022-07-30T00:04:33.946Z,18.07
2022-07-30T00:09:36.887Z,18.01
2022-07-30T00:14:41.297Z,17.98
2022-07-30T00:19:44.362Z,17.88
2022-07-30T00:24:47.844Z,17.76
2022-07-30T00:29:52.156Z,17.73
2022-07-30T00:34:55.247Z,17.71
2022-07-30T00:39:58.250Z,17.68
2022-07-30T00:45:02.543Z,17.63
2022-07-30T00:50:07.779Z,17.54
2022-07-30T00:55:14.224Z,17.46
2022-07-30T01:00:19.592Z,17.41
2022-07-30T01:05:22.786Z,17.39
2022-07-30T01:10:26.229Z,17.38
2022-07-30T01:15:31.265Z,17.37
2022-07-30T01:20:39.440Z,17.33
2022-07-30T01:26:03.152Z,17.22
2022-07-30T01:31:08.422Z,17.20
2022-07-30T01:36:14.243Z,17.12
2022-07-30T01:41:20.315Z,17.09
2022-07-30T01:46:25.275Z,17.06
2022-07-30T01:51:37.708Z,16.98
2022-07-30T01:56:45.157Z,16.91
2022-07-30T02:01:49.480Z,16.89
2022-07-30T02:07:01.121Z,16.84
2022-07-30T02:12:27.323Z,16.81
2022-07-30T02:17:39.905Z,16.74
2022-07-30T02:22:48.621Z,16.72
2022-07-30T02:27:57.429Z,16.69
2022-07-30T02:33:08.318Z,16.61
2022-07-30T02:38:14.019Z,16.62
2022-07-30T02:43:20.805Z,16.54
2022-07-30T02:48:34.416Z,16.52
2022-07-30T02:53:39.578Z,16.41
2022-07-30T02:58:45.814Z,16.44
2022-07-30T03:03:49.565Z,16.44
2022-07-30T03:08:54.990Z,16.38
2022-07-30T03:13:59.544Z,16.41
2022-07-30T03:19:05.107Z,16.37
2022-07-30T03:24:10.201Z,16.32
2022-07-30T03:29:17.556Z,16.32
2022-07-30T03:34:26.705Z,16.25
2022-07-30T03:39:36.045Z,16.20
2022-07-30T03:44:42.411Z,16.12
2022-07-30T03:49:45.559Z,16.13
2022-07-30T03:54:49.768Z,16.11
2022-07-30T04:00:26.436Z,16.12
2022-07-30T04:05:37.456Z,16.07
2022-07-30T04:10:45.247Z,16.06
2022-07-30T04:16:38.923Z,16.11
2022-07-30T04:21:47.635Z,16.10
2022-07-30T04:26:52.764Z,16.06
2022-07-30T04:31:58.143Z,16.11
2022-07-30T04:37:09.840Z,16.13
2022-07-30T04:42:14.061Z,16.17
2022-07-30T04:47:22.297Z,16.17
2022-07-30T04:52:49.630Z,16.23
2022-07-30T04:58:01.966Z,16.44
2022-07-30T05:03:11.140Z,16.64
2022-07-30T05:08:14.917Z,16.75
2022-07-30T05:13:17.886Z,16.78
2022-07-30T05:18:23.587Z,16.77
2022-07-30T05:23:26.604Z,16.80
2022-07-30T05:28:38.286Z,16.78
2022-07-30T05:33:48.909Z,16.84
2022-07-30T05:38:54.135Z,16.91
2022-07-30T05:44:11.680Z,16.93
2022-07-30T05:49:16.400Z,16.97
2022-07-30T05:54:19.726Z,17.06
2022-07-30T05:59:40.906Z,17.21
2022-07-30T06:04:46.885Z,17.28
2022-07-30T06:09:49.960Z,17.20
2022-07-30T06:14:53.098Z,17.26
2022-07-30T06:20:03.522Z,17.32
2022-07-30T06:25:13.486Z,17.40
2022-07-30T06:30:30.425Z,17.50
2022-07-30T06:35:36.123Z,17.53
2022-07-30T06:40:40.441Z,17.52
2022-07-30T06:45:55.456Z,17.56
2022-07-30T06:51:02.249Z,17.64
2022-07-30T06:56:06.095Z,17.68
2022-07-30T07:01:18.539Z,17.75
2022-07-30T07:06:23.090Z,17.84
2022-07-30T07:11:26.275Z,17.90
2022-07-30T07:16:32.333Z,17.96
2022-07-30T07:21:42.605Z,17.97
2022-07-30T07:26:45.839Z,18.01
2022-07-30T07:32:06.389Z,18.09
2022-07-30T07:37:12.575Z,18.29
2022-07-30T07:42:16.331Z,18.72
2022-07-30T07:47:20.793Z,19.19
2022-07-30T07:52:40.493Z,19.50
2022-07-30T07:57:45.469Z,19.57
2022-07-30T08:02:51.815Z,19.70
2022-07-30T08:07:56.455Z,19.76
2022-07-30T08:13:49.001Z,20.18
2022-07-30T08:19:14.976Z,20.34
2022-07-30T08:24:26.683Z,20.49
2022-07-30T08:29:30.178Z,20.77
2022-07-30T08:34:33.414Z,21.10
2022-07-30T08:39:40.593Z,21.25
2022-07-30T08:44:46.617Z,21.60
2022-07-30T08:49:52.790Z,21.72
2022-07-30T08:55:02.659Z,21.81
2022-07-30T09:00:08.557Z,22.25
2022-07-30T09:05:12.784Z,22.72
2022-07-30T09:10:17.797Z,22.67
2022-07-30T09:15:23.718Z,23.09
2022-07-30T09:20:29.137Z,23.39
2022-07-30T09:25:40.318Z,23.76
2022-07-30T09:31:07.453Z,24.05
2022-07-30T09:36:32.937Z,24.06
2022-07-30T09:42:20.641Z,24.47
2022-07-30T09:47:34.133Z,24.35
2022-07-30T09:52:44.326Z,24.54
2022-07-30T09:57:58.679Z,24.87
2022-07-30T10:03:34.437Z,24.78
2022-07-30T10:08:58.224Z,25.54
2022-07-30T10:14:04.452Z,26.05
2022-07-30T10:19:15.908Z,25.87
2022-07-30T10:25:01.480Z,26.64
2022-07-30T10:30:28.200Z,27.02
2022-07-30T10:35:37.715Z,27.32
2022-07-30T10:40:47.519Z,27.91
2022-07-30T10:46:00.599Z,28.24
2022-07-30T10:57:06.056Z,28.42
2022-07-30T11:02:59.581Z,28.51
2022-07-30T11:08:36.774Z,28.44
2022-07-30T11:13:57.383Z,29.02
2022-07-30T11:19:56.393Z,28.85
2022-07-30T11:24:47.093Z,28.55
2022-07-30T11:29:52.196Z,29.07
2022-07-30T11:35:19.562Z,29.35
2022-07-30T11:40:29.027Z,29.50
2022-07-30T11:45:32.435Z,29.36
2022-07-30T11:50:36.040Z,29.59
2022-07-30T11:55:42.639Z,29.61
2022-07-30T12:00:47.943Z,29.64
2022-07-30T12:05:53.296Z,29.72
2022-07-30T12:11:00.022Z,30.07
2022-07-30T12:16:09.262Z,30.07
2022-07-30T12:21:15.706Z,30.16
2022-07-30T12:26:26.756Z,29.93
2022-07-30T12:31:30.500Z,29.83
2022-07-30T12:36:35.459Z,29.98
2022-07-30T12:41:47.160Z,30.15
2022-07-30T12:46:50.378Z,30.29
2022-07-30T12:52:00.274Z,30.59
2022-07-30T12:57:07.178Z,30.82
2022-07-30T13:02:10.505Z,30.58
2022-07-30T13:07:14.100Z,30.37
2022-07-30T13:12:18.522Z,30.37
2022-07-30T13:17:21.576Z,30.19
2022-07-30T13:22:24.887Z,30.00
2022-07-30T13:27:29.397Z,30.18
2022-07-30T13:32:32.977Z,30.18
2022-07-30T13:37:38.234Z,30.48
2022-07-30T13:42:43.130Z,30.45
2022-07-30T13:47:46.151Z,30.30
2022-07-30T13:52:49.370Z,30.60
2022-07-30T13:57:53.995Z,30.81
2022-07-30T14:02:56.973Z,30.92
2022-07-30T14:08:00.672Z,30.96
2022-07-30T14:13:06.333Z,31.13
2022-07-30T14:18:09.464Z,30.89
2022-07-30T14:23:12.464Z,31.17
2022-07-30T14:28:17.194Z,30.83
2022-07-30T14:33:20.200Z,30.93
2022-07-30T14:38:23.515Z,31.27
2022-07-30T14:43:30.813Z,31.68
2022-07-30T14:48:33.818Z,31.64
2022-07-30T14:53:37.284Z,31.23
2022-07-30T14:58:41.766Z,30.91
2022-07-30T15:03:45.375Z,30.68
2022-07-30T15:08:48.869Z,30.87
2022-07-30T15:13:53.372Z,31.00
2022-07-30T15:18:56.502Z,31.11
2022-07-30T15:23:59.658Z,31.16
2022-07-30T15:29:04.144Z,31.18
2022-07-30T15:34:11.003Z,30.79
2022-07-30T15:39:15.475Z,30.75
2022-07-30T15:44:20.115Z,30.26
2022-07-30T15:49:23.691Z,30.36
2022-07-30T15:54:26.924Z,30.23
2022-07-30T15:59:32.012Z,30.06
2022-07-30T16:04:35.558Z,29.83
2022-07-30T16:09:38.712Z,29.58
2022-07-30T16:14:43.255Z,29.12
2022-07-30T16:19:46.378Z,28.94
2022-07-30T16:24:50.031Z,28.51
2022-07-30T16:29:54.801Z,28.26
2022-07-30T16:34:57.874Z,28.40
2022-07-30T16:40:00.970Z,28.30
2022-07-30T16:45:07.640Z,28.22
2022-07-30T16:50:11.997Z,27.92
2022-07-30T16:55:15.260Z,27.85
2022-07-30T17:00:20.018Z,27.83
2022-07-30T17:05:22.973Z,27.77
2022-07-30T17:10:26.678Z,27.40
2022-07-30T17:15:33.349Z,27.06
2022-07-30T17:20:36.599Z,27.00
2022-07-30T17:25:39.643Z,26.91
2022-07-30T17:30:44.104Z,26.94
2022-07-30T17:35:47.164Z,26.95
2022-07-30T17:40:50.429Z,26.76
2022-07-30T17:45:54.860Z,26.63
2022-07-30T17:50:57.898Z,26.66
2022-07-30T17:56:01.001Z,26.70
2022-07-30T18:01:05.662Z,26.72
2022-07-30T18:06:08.649Z,26.79
2022-07-30T18:11:13.942Z,26.87
2022-07-30T18:16:18.691Z,26.94
2022-07-30T18:21:21.784Z,26.87
2022-07-30T18:26:24.839Z,26.87
2022-07-30T18:31:29.515Z,26.84
2022-07-30T18:36:32.583Z,26.76
2022-07-30T18:41:35.639Z,26.61
2022-07-30T18:46:40.057Z,26.49
2022-07-30T18:51:43.097Z,26.37
2022-07-30T18:56:46.557Z,26.26
2022-07-30T19:01:50.903Z,26.11
2022-07-30T19:06:53.916Z,25.96
2022-07-30T19:11:56.934Z,25.82
2022-07-30T19:17:01.380Z,25.66
2022-07-30T19:22:05.726Z,25.58
2022-07-30T19:27:13.964Z,25.45
2022-07-30T19:32:18.783Z,25.34
2022-07-30T19:37:22.048Z,25.23
2022-07-30T19:42:26.163Z,25.11
2022-07-30T19:47:39.133Z,25.01
2022-07-30T19:52:51.223Z,24.86
2022-07-30T19:57:55.024Z,24.74
2022-07-30T20:02:59.825Z,24.62
2022-07-30T20:08:04.370Z,24.50
2022-07-30T20:13:08.462Z,24.35
2022-07-30T20:18:12.871Z,24.21
2022-07-30T20:23:17.977Z,24.08
2022-07-30T20:28:21.207Z,23.94
2022-07-30T20:33:36.197Z,23.75
2022-07-30T20:38:44.455Z,23.77
2022-07-30T20:43:52.392Z,23.71
2022-07-30T20:48:59.223Z,23.65
2022-07-30T20:54:02.604Z,23.56
2022-07-30T20:59:06.420Z,23.53
2022-07-30T21:04:10.841Z,23.43
2022-07-30T21:09:29.057Z,23.32
2022-07-30T21:14:52.942Z,23.18
2022-07-30T21:19:57.491Z,23.08
2022-07-30T21:25:00.659Z,23.03
2022-07-30T21:30:05.285Z,22.97
2022-07-30T21:35:11.690Z,22.76
2022-07-30T21:40:15.128Z,22.64
2022-07-30T21:45:19.820Z,22.59
2022-07-30T21:50:24.561Z,22.60
2022-07-30T21:55:27.767Z,22.53
2022-07-30T22:00:44.871Z,22.41
2022-07-30T22:05:50.838Z,22.34
2022-07-30T22:10:56.663Z,22.28
2022-07-30T22:16:00.007Z,22.18
2022-07-30T22:21:05.199Z,22.11
2022-07-30T22:26:10.028Z,22.09
2022-07-30T22:31:15.887Z,22.08
2022-07-30T22:36:25.230Z,22.04
2022-07-30T22:41:28.884Z,22.04
2022-07-30T22:46:32.219Z,22.04
2022-07-30T22:52:01.820Z,22.00
2022-07-30T22:57:03.776Z,22.00
2022-07-30T23:02:07.185Z,21.99
2022-07-30T23:07:19.088Z,21.91
2022-07-30T23:12:22.249Z,21.85
2022-07-30T23:17:25.379Z,21.85
2022-07-30T23:22:29.754Z,21.81
2022-07-30T23:27:32.970Z,21.80
2022-07-30T23:32:36.707Z,21.81
2022-07-30T23:37:49.169Z,21.78
2022-07-30T23:42:52.653Z,21.74
2022-07-30T23:48:01.582Z,21.70
2022-07-30T23:53:07.838Z,21.66
2022-07-30T23:58:10.818Z,21.59
